createdAt,value
2018-09-18T00:01:28.681Z,60.20
2018-09-18T00:03:57.331Z,60.20
2018-09-18T00:06:26.534Z,60.20
2018-09-18T00:08:54.843Z,60.20
2018-09-18T00:11:23.090Z,60.30
2018-09-18T00:13:51.315Z,60.50
2018-09-18T00:16:19.900Z,60.30
2018-09-18T00:18:48.134Z,60.30
2018-09-18T00:21:16.549Z,60.30
2018-09-18T00:23:45.190Z,60.30
2018-09-18T00:26:13.418Z,60.30
2018-09-18T00:28:41.669Z,60.30
2018-09-18T00:31:10.730Z,60.30
2018-09-18T00:33:38.946Z,60.40
2018-09-18T00:36:07.278Z,60.30
2018-09-18T00:38:35.658Z,60.40
2018-09-18T00:41:03.954Z,60.30
2018-09-18T00:43:32.190Z,60.40
2018-09-18T00:46:00.502Z,60.40
2018-09-18T00:48:28.715Z,60.40
2018-09-18T00:50:56.997Z,60.30
2018-09-18T00:53:25.775Z,60.40
2018-09-18T00:55:53.989Z,60.40
2018-09-18T00:58:22.314Z,60.50
2018-09-18T01:00:50.895Z,60.40
2018-09-18T01:03:19.277Z,60.40
2018-09-18T01:05:47.694Z,60.40
2018-09-18T01:08:16.825Z,60.40
2018-09-18T01:10:45.063Z,60.40
2018-09-18T01:13:13.276Z,60.40
2018-09-18T01:15:42.384Z,60.40
2018-09-18T01:18:10.686Z,60.40
2018-09-18T01:20:38.989Z,60.40
2018-09-18T01:23:07.618Z,60.40
2018-09-18T01:25:35.863Z,60.40
2018-09-18T01:28:04.410Z,60.40
2018-09-18T01:30:34.194Z,60.40
2018-09-18T01:33:02.447Z,60.40
2018-09-18T01:35:30.677Z,60.40
2018-09-18T01:37:59.941Z,60.40
2018-09-18T01:40:28.157Z,61.00
2018-09-18T01:42:56.470Z,60.40
2018-09-18T01:45:24.914Z,60.50
2018-09-18T01:47:53.208Z,60.50
2018-09-18T01:50:21.431Z,60.50
2018-09-18T01:52:50.010Z,60.40
2018-09-18T01:55:18.222Z,60.40
2018-09-18T01:57:46.446Z,60.50
2018-09-18T02:00:16.692Z,60.50
2018-09-18T02:02:44.985Z,60.50
2018-09-18T02:05:18.866Z,60.50
2018-09-18T02:07:47.078Z,60.40
2018-09-18T02:10:15.849Z,60.50
2018-09-18T02:12:44.730Z,60.40
2018-09-18T02:15:12.954Z,60.50
2018-09-18T02:17:41.173Z,60.50
2018-09-18T02:20:09.770Z,60.50
2018-09-18T02:22:38.002Z,60.50
2018-09-18T02:25:06.246Z,60.50
2018-09-18T02:27:34.797Z,60.50
2018-09-18T02:30:03.066Z,60.50
2018-09-18T02:32:31.448Z,60.50
2018-09-18T02:35:00.049Z,60.50
2018-09-18T02:37:28.289Z,60.50
2018-09-18T02:39:56.597Z,60.50
2018-09-18T02:42:24.890Z,60.50
2018-09-18T02:44:53.194Z,60.50
2018-09-18T02:47:21.422Z,60.50
2018-09-18T02:49:50.618Z,60.50
2018-09-18T02:52:19.345Z,60.50
2018-09-18T02:54:47.573Z,60.50
2018-09-18T02:57:15.858Z,60.60
2018-09-18T02:59:44.242Z,60.50
2018-09-18T03:02:12.554Z,60.50
2018-09-18T03:04:41.508Z,60.50
2018-09-18T03:07:09.729Z,60.50
2018-09-18T03:09:37.938Z,60.50
2018-09-18T03:12:06.594Z,60.50
2018-09-18T03:14:34.819Z,60.50
2018-09-18T03:17:03.035Z,60.50
2018-09-18T03:19:31.342Z,61.20
2018-09-18T03:21:59.589Z,60.50
2018-09-18T03:24:27.838Z,60.50
2018-09-18T03:26:57.038Z,60.50
2018-09-18T03:29:25.331Z,60.40
2018-09-18T03:31:53.633Z,60.50
2018-09-18T03:34:22.367Z,61.20
2018-09-18T03:36:51.010Z,60.50
2018-09-18T03:39:19.218Z,60.50
2018-09-18T03:41:47.720Z,60.50
2018-09-18T03:44:16.014Z,60.50
2018-09-18T03:46:44.236Z,60.50
2018-09-18T03:49:13.254Z,60.50
2018-09-18T03:51:41.545Z,60.50
2018-09-18T03:54:09.866Z,60.50
2018-09-18T03:56:38.389Z,60.50
2018-09-18T03:59:06.619Z,60.50
2018-09-18T04:01:34.984Z,60.50
2018-09-18T04:04:03.598Z,60.50
2018-09-18T04:06:31.891Z,60.40
2018-09-18T04:09:00.186Z,60.40
2018-09-18T04:11:29.079Z,60.40
2018-09-18T04:13:57.849Z,60.50
2018-09-18T04:16:26.083Z,60.50
2018-09-18T04:18:54.737Z,60.50
2018-09-18T04:21:27.185Z,60.50
2018-09-18T04:23:55.634Z,60.50
2018-09-18T04:26:23.861Z,60.50
2018-09-18T04:28:52.161Z,60.50
2018-09-18T04:31:21.234Z,60.50
2018-09-18T04:33:49.450Z,60.50
2018-09-18T04:36:17.782Z,60.50
2018-09-18T04:38:46.267Z,60.50
2018-09-18T04:41:14.573Z,60.40
2018-09-18T04:43:42.879Z,60.50
2018-09-18T04:46:12.240Z,60.50
2018-09-18T04:48:40.473Z,60.50
2018-09-18T04:51:08.823Z,61.20
2018-09-18T04:53:37.920Z,60.50
2018-09-18T04:56:06.190Z,60.60
2018-09-18T04:58:34.421Z,60.70
2018-09-18T05:01:03.124Z,60.80
2018-09-18T05:03:33.137Z,60.90
2018-09-18T05:06:01.883Z,61.00
2018-09-18T05:08:30.122Z,60.90
2018-09-18T05:10:58.506Z,61.00
2018-09-18T05:13:27.058Z,61.00
2018-09-18T05:15:55.806Z,61.20
2018-09-18T05:18:24.027Z,61.00
2018-09-18T05:20:52.939Z,61.20
2018-09-18T05:23:21.186Z,61.20
2018-09-18T05:25:49.891Z,61.50
2018-09-18T05:28:18.566Z,61.30
2018-09-18T05:30:46.799Z,61.20
2018-09-18T05:33:15.039Z,61.30
2018-09-18T05:35:43.557Z,61.30
2018-09-18T05:38:11.902Z,61.40
2018-09-18T05:40:40.201Z,61.50
2018-09-18T05:43:09.048Z,61.30
2018-09-18T05:45:37.292Z,61.40
2018-09-18T05:48:05.811Z,61.20
2018-09-18T05:50:34.309Z,61.30
2018-09-18T05:53:02.542Z,61.20
2018-09-18T05:55:30.778Z,61.10
2018-09-18T05:57:59.097Z,61.00
2018-09-18T06:00:27.415Z,61.10
2018-09-18T06:02:55.655Z,60.90
2018-09-18T06:05:24.874Z,60.90
2018-09-18T06:07:53.100Z,60.90
2018-09-18T06:10:21.566Z,60.90
2018-09-18T06:12:49.906Z,60.90
2018-09-18T06:15:18.226Z,61.00
2018-09-18T06:17:47.566Z,60.90
2018-09-18T06:20:15.842Z,60.90
2018-09-18T06:22:44.094Z,60.90
2018-09-18T06:25:12.395Z,60.90
2018-09-18T06:27:41.206Z,60.90
2018-09-18T06:30:09.471Z,60.80
2018-09-18T06:32:37.681Z,60.80
2018-09-18T06:35:05.956Z,60.80
2018-09-18T06:37:34.178Z,61.60
2018-09-18T06:40:02.561Z,60.80
2018-09-18T06:42:31.174Z,60.80
2018-09-18T06:44:59.405Z,60.80
2018-09-18T06:47:27.635Z,60.80
2018-09-18T06:49:57.455Z,60.80
2018-09-18T06:52:25.666Z,60.80
2018-09-18T06:54:53.886Z,60.80
2018-09-18T06:57:22.231Z,60.80
2018-09-18T06:59:50.458Z,60.80
2018-09-18T07:02:19.234Z,60.80
2018-09-18T07:04:47.526Z,60.70
2018-09-18T07:07:15.754Z,60.70
2018-09-18T07:09:44.671Z,60.70
2018-09-18T07:12:12.905Z,60.70
2018-09-18T07:14:41.230Z,60.60
2018-09-18T07:17:09.814Z,60.80
2018-09-18T07:19:39.205Z,60.70
2018-09-18T07:22:07.482Z,60.70
2018-09-18T07:24:35.866Z,60.70
2018-09-18T07:27:04.122Z,60.80
2018-09-18T07:29:32.452Z,60.70
2018-09-18T07:32:01.311Z,60.50
2018-09-18T07:34:29.629Z,60.70
2018-09-18T07:36:57.883Z,60.70
2018-09-18T07:39:26.567Z,60.70
2018-09-18T07:41:54.783Z,60.60
2018-09-18T07:44:22.994Z,60.60
2018-09-18T07:46:51.253Z,60.70
2018-09-18T07:49:19.479Z,60.60
2018-09-18T07:51:47.690Z,60.70
2018-09-18T07:54:17.039Z,60.70
2018-09-18T07:56:45.321Z,60.60
2018-09-18T07:59:13.573Z,60.60
2018-09-18T08:01:42.074Z,60.60
2018-09-18T08:04:12.250Z,60.70
2018-09-18T08:06:40.473Z,60.60
2018-09-18T08:09:10.713Z,60.60
2018-09-18T08:11:38.994Z,60.60
2018-09-18T08:14:07.238Z,60.50
2018-09-18T08:16:36.034Z,60.60
2018-09-18T08:19:04.366Z,60.50
2018-09-18T08:21:32.579Z,60.50
2018-09-18T08:24:01.830Z,60.60
2018-09-18T08:26:30.211Z,60.50
2018-09-18T08:28:58.438Z,60.60
2018-09-18T08:31:26.930Z,60.50
2018-09-18T08:33:55.215Z,60.50
2018-09-18T08:36:23.570Z,60.40
2018-09-18T08:38:52.271Z,60.30
2018-09-18T08:41:20.607Z,60.30
2018-09-18T08:43:48.915Z,60.30
2018-09-18T08:46:17.581Z,60.40
2018-09-18T08:48:51.165Z,60.40
2018-09-18T08:51:22.255Z,60.30
2018-09-18T08:53:50.550Z,60.50
2018-09-18T08:56:18.825Z,60.50
2018-09-18T08:58:47.182Z,60.50
2018-09-18T09:01:15.452Z,60.50
2018-09-18T09:03:43.640Z,60.50
2018-09-18T09:06:13.394Z,60.50
2018-09-18T09:08:41.676Z,60.50
2018-09-18T09:11:09.939Z,60.50
2018-09-18T09:13:38.342Z,60.50
2018-09-18T09:16:06.926Z,61.00
2018-09-18T09:18:35.208Z,60.60
2018-09-18T09:21:04.119Z,60.60
2018-09-18T09:23:32.555Z,60.50
2018-09-18T09:26:00.807Z,60.50
2018-09-18T09:28:29.374Z,60.10
2018-09-18T09:30:57.781Z,60.50
2018-09-18T09:33:26.098Z,60.60
2018-09-18T09:35:54.748Z,60.60
2018-09-18T09:38:22.994Z,60.50
2018-09-18T09:40:51.267Z,60.50
2018-09-18T09:43:20.235Z,60.50
2018-09-18T09:45:48.784Z,60.50
2018-09-18T09:48:17.008Z,60.50
2018-09-18T09:50:46.326Z,60.60
2018-09-18T09:53:14.643Z,60.50
2018-09-18T09:55:43.039Z,60.50
2018-09-18T09:58:11.672Z,60.60
2018-09-18T10:00:41.426Z,60.50
2018-09-18T10:03:09.642Z,60.50
2018-09-18T10:05:38.234Z,60.60
2018-09-18T10:08:06.909Z,60.60
2018-09-18T10:10:35.197Z,60.60
2018-09-18T10:13:03.990Z,60.70
2018-09-18T10:15:32.296Z,60.90
2018-09-18T10:18:00.551Z,60.90
2018-09-18T10:20:29.138Z,61.10
2018-09-18T10:22:57.454Z,61.40
2018-09-18T10:25:25.786Z,61.60
2018-09-18T10:27:54.390Z,61.70
2018-09-18T10:30:22.675Z,61.80
2018-09-18T10:32:50.997Z,61.90
2018-09-18T10:35:19.810Z,62.10
2018-09-18T10:37:48.122Z,62.10
2018-09-18T10:40:16.363Z,62.30
2018-09-18T10:42:44.833Z,62.10
2018-09-18T10:45:13.068Z,62.10
2018-09-18T10:47:41.312Z,62.20
2018-09-18T10:50:09.982Z,62.50
2018-09-18T10:52:38.315Z,62.80
2018-09-18T10:55:06.726Z,62.80
2018-09-18T10:57:36.568Z,63.00
2018-09-18T11:00:06.137Z,63.00
2018-09-18T11:02:34.367Z,63.30
2018-09-18T11:05:05.193Z,63.30
2018-09-18T11:07:33.515Z,63.30
2018-09-18T11:10:01.737Z,63.90
2018-09-18T11:12:30.328Z,63.50
2018-09-18T11:14:58.720Z,63.40
2018-09-18T11:17:26.838Z,63.40
2018-09-18T11:19:55.820Z,63.20
2018-09-18T11:22:24.186Z,63.90
2018-09-18T11:24:52.420Z,64.10
2018-09-18T11:27:21.240Z,64.20
2018-09-18T11:29:49.438Z,64.30
2018-09-18T11:32:17.775Z,65.90
2018-09-18T11:34:46.356Z,68.90
2018-09-18T11:37:14.658Z,69.30
2018-09-18T11:39:42.954Z,69.10
2018-09-18T11:42:11.804Z,69.30
2018-09-18T11:44:40.021Z,68.70
2018-09-18T11:47:08.267Z,68.40
2018-09-18T11:49:40.511Z,67.90
2018-09-18T11:52:08.828Z,67.90
2018-09-18T11:54:37.279Z,68.30
2018-09-18T11:57:06.125Z,67.20
2018-09-18T11:59:34.289Z,66.60
2018-09-18T12:02:02.637Z,66.20
2018-09-18T12:04:30.928Z,66.20
2018-09-18T12:07:01.962Z,66.50
2018-09-18T12:09:30.213Z,66.90
2018-09-18T12:11:58.509Z,67.30
2018-09-18T12:14:26.754Z,67.00
2018-09-18T12:16:55.047Z,67.00
2018-09-18T12:19:23.735Z,67.20
2018-09-18T12:21:52.010Z,68.60
2018-09-18T12:24:20.259Z,68.40
2018-09-18T12:26:49.289Z,68.40
2018-09-18T12:29:17.604Z,67.30
2018-09-18T12:31:45.838Z,67.10
2018-09-18T12:34:14.724Z,67.50
2018-09-18T12:36:42.987Z,67.70
2018-09-18T12:39:11.282Z,67.70
2018-09-18T12:41:41.175Z,67.30
2018-09-18T12:44:09.402Z,67.70
2018-09-18T12:46:37.674Z,67.10
2018-09-18T12:49:06.768Z,67.60
2018-09-18T12:51:34.908Z,67.70
2018-09-18T12:54:03.179Z,66.90
2018-09-18T12:56:31.429Z,67.00
2018-09-18T12:58:59.795Z,66.90
2018-09-18T13:01:27.986Z,66.60
2018-09-18T13:03:56.271Z,66.60
2018-09-18T13:06:24.662Z,66.50
2018-09-18T13:08:53.699Z,66.50
2018-09-18T13:11:23.079Z,66.30
2018-09-18T13:13:51.404Z,66.30
2018-09-18T13:16:19.706Z,65.90
2018-09-18T13:18:48.624Z,66.20
2018-09-18T13:21:16.856Z,66.20
2018-09-18T13:23:45.103Z,66.30
2018-09-18T13:26:13.451Z,66.60
2018-09-18T13:28:41.699Z,67.40
2018-09-18T13:31:10.007Z,66.50
2018-09-18T13:33:38.605Z,66.70
2018-09-18T13:36:06.853Z,66.20
2018-09-18T13:38:35.359Z,66.00
2018-09-18T13:41:03.806Z,65.80
2018-09-18T13:43:31.909Z,65.70
2018-09-18T13:46:00.229Z,65.50
2018-09-18T13:48:28.871Z,65.30
2018-09-18T13:50:57.127Z,65.20
2018-09-18T13:53:25.451Z,65.10
2018-09-18T13:55:54.370Z,65.00
2018-09-18T13:58:22.643Z,65.00
2018-09-18T14:00:50.899Z,64.90
2018-09-18T14:03:21.090Z,64.80
2018-09-18T14:05:50.116Z,64.80
2018-09-18T14:08:18.449Z,64.80
2018-09-18T14:10:47.154Z,64.70
2018-09-18T14:13:15.381Z,64.70
2018-09-18T14:15:43.686Z,65.20
2018-09-18T14:18:12.798Z,65.60
2018-09-18T14:20:41.133Z,65.50
2018-09-18T14:23:09.362Z,65.60
2018-09-18T14:25:40.398Z,66.10
2018-09-18T14:28:08.798Z,66.20
2018-09-18T14:30:37.139Z,66.60
2018-09-18T14:33:05.499Z,66.20
2018-09-18T14:35:33.769Z,65.80
2018-09-18T14:38:02.093Z,65.80
2018-09-18T14:40:30.464Z,66.00
2018-09-18T14:42:58.728Z,65.80
2018-09-18T14:45:27.061Z,65.50
2018-09-18T14:47:56.008Z,65.90
2018-09-18T14:50:24.247Z,66.20
2018-09-18T14:52:52.551Z,66.10
2018-09-18T14:55:21.153Z,66.10
2018-09-18T14:57:49.529Z,66.00
2018-09-18T15:00:17.815Z,65.90
2018-09-18T15:02:46.102Z,65.60
2018-09-18T15:05:14.346Z,65.20
2018-09-18T15:07:42.575Z,65.20
2018-09-18T15:10:11.832Z,65.00
2018-09-18T15:12:41.354Z,65.70
2018-09-18T15:15:09.586Z,65.90
2018-09-18T15:17:38.503Z,65.80
2018-09-18T15:20:06.744Z,65.20
2018-09-18T15:22:34.989Z,65.10
2018-09-18T15:25:03.537Z,65.00
2018-09-18T15:27:31.798Z,64.90
2018-09-18T15:30:00.015Z,64.90
2018-09-18T15:32:29.032Z,64.80
2018-09-18T15:34:57.400Z,64.80
2018-09-18T15:37:25.654Z,64.80
2018-09-18T15:39:53.943Z,64.80
2018-09-18T15:42:22.161Z,64.70
2018-09-18T15:44:50.441Z,65.30
2018-09-18T15:47:18.722Z,64.60
2018-09-18T15:49:47.041Z,67.60
2018-09-18T15:52:15.267Z,69.80
2018-09-18T15:54:43.895Z,70.10
2018-09-18T15:57:12.246Z,71.10
2018-09-18T15:59:40.680Z,70.80
2018-09-18T16:02:09.658Z,70.70
2018-09-18T16:04:38.996Z,70.70
2018-09-18T16:07:07.244Z,70.70
2018-09-18T16:09:35.522Z,70.60
2018-09-18T16:12:03.773Z,70.70
2018-09-18T16:14:32.768Z,70.10
2018-09-18T16:17:01.994Z,70.50
2018-09-18T16:19:30.272Z,69.00
2018-09-18T16:21:58.502Z,69.90
2018-09-18T16:24:26.990Z,69.00
2018-09-18T16:26:55.254Z,69.00
2018-09-18T16:29:23.718Z,69.50
2018-09-18T16:31:52.339Z,69.50
2018-09-18T16:34:20.862Z,69.60
2018-09-18T16:36:49.438Z,71.20
2018-09-18T16:39:19.837Z,71.30
2018-09-18T16:41:48.182Z,71.90
2018-09-18T16:44:16.548Z,71.90
2018-09-18T16:46:45.835Z,71.70
2018-09-18T16:49:14.032Z,71.60
2018-09-18T16:51:42.281Z,71.30
2018-09-18T16:54:10.854Z,71.00
2018-09-18T16:56:39.062Z,71.80
2018-09-18T16:59:07.399Z,69.90
2018-09-18T17:01:36.211Z,69.50
2018-09-18T17:04:07.220Z,69.40
2018-09-18T17:06:35.598Z,69.70
2018-09-18T17:09:05.922Z,69.70
2018-09-18T17:11:34.208Z,69.20
2018-09-18T17:14:02.447Z,69.80
2018-09-18T17:16:31.496Z,69.80
2018-09-18T17:18:59.723Z,70.10
2018-09-18T17:21:27.987Z,70.00
2018-09-18T17:23:56.403Z,70.30
2018-09-18T17:26:24.724Z,70.70
2018-09-18T17:28:53.438Z,70.70
2018-09-18T17:31:21.954Z,70.60
2018-09-18T17:33:50.263Z,70.40
2018-09-18T17:36:18.551Z,70.50
2018-09-18T17:38:48.367Z,70.40
2018-09-18T17:41:16.625Z,70.30
2018-09-18T17:43:45.054Z,70.30
2018-09-18T17:46:13.475Z,71.20
2018-09-18T17:48:41.881Z,71.20
2018-09-18T17:51:10.075Z,70.70
2018-09-18T17:53:38.755Z,70.60
2018-09-18T17:56:06.964Z,70.30
2018-09-18T17:58:35.415Z,70.70
2018-09-18T18:01:04.259Z,70.90
2018-09-18T18:03:32.557Z,70.60
2018-09-18T18:06:02.832Z,70.60
2018-09-18T18:08:31.283Z,70.50
2018-09-18T18:10:59.612Z,70.50
2018-09-18T18:13:28.199Z,70.00
2018-09-18T18:15:56.470Z,70.50
2018-09-18T18:18:24.982Z,70.30
2018-09-18T18:20:55.157Z,71.30
2018-09-18T18:23:23.482Z,71.70
2018-09-18T18:25:51.749Z,71.00
2018-09-18T18:28:20.411Z,71.50
2018-09-18T18:30:48.688Z,71.40
2018-09-18T18:33:17.017Z,71.30
2018-09-18T18:35:45.481Z,70.90
2018-09-18T18:38:13.751Z,70.60
2018-09-18T18:40:42.169Z,70.50
2018-09-18T18:43:10.473Z,70.30
2018-09-18T18:45:38.765Z,69.90
2018-09-18T18:48:07.370Z,69.80
2018-09-18T18:50:35.724Z,69.60
2018-09-18T18:53:03.987Z,69.90
2018-09-18T18:55:32.397Z,69.40
2018-09-18T18:58:01.574Z,69.20
2018-09-18T19:00:29.887Z,69.50
2018-09-18T19:02:58.200Z,69.30
2018-09-18T19:05:26.549Z,69.30
2018-09-18T19:07:56.258Z,69.10
2018-09-18T19:10:24.665Z,69.00
2018-09-18T19:12:53.103Z,68.90
2018-09-18T19:15:21.387Z,68.80
2018-09-18T19:17:49.659Z,68.70
2018-09-18T19:20:18.739Z,68.70
2018-09-18T19:22:47.161Z,69.40
2018-09-18T19:25:15.449Z,68.70
2018-09-18T19:27:43.868Z,68.60
2018-09-18T19:30:12.240Z,68.50
2018-09-18T19:32:40.777Z,68.50
2018-09-18T19:35:09.321Z,68.50
2018-09-18T19:37:37.626Z,68.30
2018-09-18T19:40:06.185Z,68.30
2018-09-18T19:42:35.321Z,69.00
2018-09-18T19:45:03.797Z,68.30
2018-09-18T19:47:32.088Z,68.20
2018-09-18T19:50:00.619Z,68.20
2018-09-18T19:52:28.915Z,68.10
2018-09-18T19:54:57.182Z,68.10
2018-09-18T19:57:25.871Z,68.10
2018-09-18T19:59:54.179Z,68.50
2018-09-18T20:02:22.466Z,68.00
2018-09-18T20:04:53.043Z,68.00
2018-09-18T20:07:21.628Z,68.00
2018-09-18T20:09:50.688Z,68.00
2018-09-18T20:12:19.104Z,67.90
2018-09-18T20:14:47.409Z,67.90
2018-09-18T20:17:15.638Z,68.00
2018-09-18T20:19:44.578Z,67.90
2018-09-18T20:22:12.911Z,67.80
2018-09-18T20:24:41.178Z,68.30
2018-09-18T20:27:10.604Z,67.70
2018-09-18T20:29:38.952Z,67.60
2018-09-18T20:32:07.266Z,67.60
2018-09-18T20:34:36.057Z,67.50
2018-09-18T20:37:04.328Z,67.50
2018-09-18T20:39:32.742Z,67.50
2018-09-18T20:42:02.136Z,67.50
2018-09-18T20:44:30.382Z,67.60
2018-09-18T20:46:58.910Z,67.50
2018-09-18T20:49:27.663Z,67.50
2018-09-18T20:51:55.901Z,67.50
2018-09-18T20:54:24.150Z,67.40
2018-09-18T20:56:52.688Z,67.40
2018-09-18T20:59:20.995Z,67.30
2018-09-18T21:01:49.316Z,67.30
2018-09-18T21:04:19.047Z,67.90
2018-09-18T21:06:47.302Z,67.10
2018-09-18T21:09:15.548Z,67.50
2018-09-18T21:11:45.518Z,67.10
2018-09-18T21:14:13.763Z,67.10
2018-09-18T21:16:42.013Z,67.10
2018-09-18T21:19:11.068Z,67.00
2018-09-18T21:21:39.392Z,67.00
2018-09-18T21:24:07.631Z,66.90
2018-09-18T21:26:36.865Z,66.80
2018-09-18T21:29:05.336Z,66.70
2018-09-18T21:31:33.606Z,67.20
2018-09-18T21:34:02.591Z,66.60
2018-09-18T21:36:30.829Z,66.60
2018-09-18T21:38:59.112Z,66.40
2018-09-18T21:41:27.525Z,66.40
2018-09-18T21:43:55.748Z,66.40
2018-09-18T21:46:24.122Z,66.40
2018-09-18T21:48:53.630Z,66.30
2018-09-18T21:51:21.852Z,66.40
2018-09-18T21:53:50.158Z,66.30
2018-09-18T21:56:18.754Z,66.30
2018-09-18T21:58:46.974Z,66.30
2018-09-18T22:01:15.298Z,66.20
2018-09-18T22:03:43.754Z,66.20
2018-09-18T22:06:12.059Z,66.20
2018-09-18T22:08:40.283Z,66.20
2018-09-18T22:11:09.482Z,66.20
2018-09-18T22:13:40.001Z,66.20
2018-09-18T22:16:08.231Z,66.10
2018-09-18T22:18:36.494Z,66.10
2018-09-18T22:21:04.709Z,66.10
2018-09-18T22:23:33.527Z,66.00
2018-09-18T22:26:01.761Z,66.00
2018-09-18T22:28:30.140Z,65.90
2018-09-18T22:30:59.702Z,66.00
2018-09-18T22:33:28.002Z,65.90
2018-09-18T22:35:56.233Z,65.80
2018-09-18T22:38:24.677Z,65.80
2018-09-18T22:40:52.906Z,65.80
2018-09-18T22:43:21.201Z,65.80
2018-09-18T22:45:49.794Z,65.70
2018-09-18T22:48:18.206Z,65.80
2018-09-18T22:50:47.434Z,65.70
2018-09-18T22:53:16.543Z,65.60
2018-09-18T22:55:44.889Z,65.50
2018-09-18T22:58:13.113Z,65.50
2018-09-18T23:00:41.354Z,65.50
2018-09-18T23:03:10.046Z,65.40
2018-09-18T23:05:39.790Z,65.40
2018-09-18T23:08:08.023Z,65.40
2018-09-18T23:10:36.242Z,65.30
2018-09-18T23:13:04.628Z,65.40
2018-09-18T23:15:32.865Z,65.40
2018-09-18T23:18:01.074Z,65.90
2018-09-18T23:20:30.657Z,65.30
2018-09-18T23:22:58.887Z,65.30
2018-09-18T23:25:27.174Z,65.30
2018-09-18T23:27:55.795Z,65.30
2018-09-18T23:30:24.020Z,65.20
2018-09-18T23:32:52.237Z,65.20
2018-09-18T23:35:21.133Z,65.20
2018-09-18T23:37:49.380Z,65.20
2018-09-18T23:40:17.697Z,65.20
2018-09-18T23:42:46.706Z,65.20
2018-09-18T23:45:15.021Z,65.10
2018-09-18T23:47:43.329Z,65.10
2018-09-18T23:50:11.617Z,65.20
2018-09-18T23:52:40.043Z,65.00
2018-09-18T23:55:08.545Z,65.00
2018-09-18T23:57:37.267Z,65.10
